createdAt,value
2023-01-17T00:00:50.147Z,97828.25
2023-01-17T00:03:16.786Z,97815.91
2023-01-17T00:05:43.580Z,97824.75
2023-01-17T00:08:11.969Z,97810.56
2023-01-17T00:10:39.629Z,97816.94
2023-01-17T00:13:06.209Z,97801.03
2023-01-17T00:15:34.202Z,97799.38
2023-01-17T00:18:00.800Z,97803.09
2023-01-17T00:20:29.207Z,97790.72
2023-01-17T00:22:55.776Z,97788.44
2023-01-17T00:25:25.492Z,97787.78
2023-01-17T00:27:52.071Z,97782.81
2023-01-17T00:30:18.812Z,97789.38
2023-01-17T00:32:46.782Z,97786.91
2023-01-17T00:35:13.454Z,97795.13
2023-01-17T00:37:40.088Z,97786.44
2023-01-17T00:40:07.568Z,97788.50
2023-01-17T00:42:34.210Z,97788.03
2023-01-17T00:45:00.846Z,97780.19
2023-01-17T00:47:27.634Z,97784.09
2023-01-17T00:49:55.713Z,97780.59
2023-01-17T00:52:22.374Z,97778.28
2023-01-17T00:54:48.947Z,97783.19
2023-01-17T00:57:15.630Z,97785.03
2023-01-17T00:59:42.411Z,97786.25
2023-01-17T01:02:09.152Z,97777.38
2023-01-17T01:04:35.861Z,97775.94
2023-01-17T01:07:04.219Z,97779.63
2023-01-17T01:09:30.996Z,97777.97
2023-01-17T01:11:57.660Z,97783.50
2023-01-17T01:14:24.292Z,97776.50
2023-01-17T01:16:51.014Z,97772.78
2023-01-17T01:19:18.133Z,97776.28
2023-01-17T01:21:44.832Z,97767.25
2023-01-17T01:24:12.858Z,97773.25
2023-01-17T01:26:39.509Z,97770.38
2023-01-17T01:29:06.154Z,97768.53
2023-01-17T01:31:32.802Z,97771.41
2023-01-17T01:33:59.457Z,97766.25
2023-01-17T01:36:26.095Z,97768.91
2023-01-17T01:38:52.750Z,97768.09
2023-01-17T01:41:20.987Z,97767.25
2023-01-17T01:43:49.790Z,97765.59
2023-01-17T01:46:19.865Z,97766.41
2023-01-17T01:48:50.526Z,97765.59
2023-01-17T01:51:23.752Z,97765.59
2023-01-17T01:53:57.909Z,97760.88
2023-01-17T02:11:59.921Z,97753.59
2023-01-17T02:14:26.591Z,97757.31
2023-01-17T02:17:03.926Z,97751.16
2023-01-17T02:23:20.202Z,97746.97
2023-01-17T02:29:43.921Z,97751.06
2023-01-17T02:32:20.641Z,97745.88
2023-01-17T02:34:53.814Z,97747.09
2023-01-17T02:37:26.001Z,97748.94
2023-01-17T02:39:59.546Z,97745.44
2023-01-17T02:42:34.024Z,97746.47
2023-01-17T02:45:02.387Z,97751.84
2023-01-17T02:47:31.905Z,97748.50
2023-01-17T02:50:02.443Z,97745.66
2023-01-17T02:52:43.708Z,97744.59
2023-01-17T02:55:23.196Z,97742.59
2023-01-17T02:58:03.590Z,97744.03
2023-01-17T03:00:43.120Z,97748.00
2023-01-17T03:03:20.526Z,97748.47
2023-01-17T03:05:52.145Z,97754.25
2023-01-17T03:08:19.993Z,97749.53
2023-01-17T03:10:46.954Z,97749.16
2023-01-17T03:13:13.542Z,97754.13
2023-01-17T03:15:40.959Z,97733.34
2023-01-17T03:18:11.433Z,97738.50
2023-01-17T03:20:39.709Z,97740.19
2023-01-17T03:23:06.346Z,97734.66
2023-01-17T03:25:33.346Z,97745.13
2023-01-17T03:27:59.959Z,97737.53
2023-01-17T03:30:26.599Z,97737.19
2023-01-17T03:32:53.206Z,97739.47
2023-01-17T03:35:19.793Z,97736.78
2023-01-17T03:37:47.710Z,97739.06
2023-01-17T03:40:14.649Z,97746.09
2023-01-17T03:42:41.370Z,97742.41
2023-01-17T03:45:09.065Z,97749.41
2023-01-17T03:47:35.732Z,97742.00
2023-01-17T03:50:02.452Z,97748.84
2023-01-17T03:52:29.085Z,97755.84
2023-01-17T03:54:57.157Z,97757.31
2023-01-17T03:57:23.847Z,97749.06
2023-01-17T03:59:50.463Z,97748.88
2023-01-17T04:02:17.264Z,97753.66
2023-01-17T04:04:43.865Z,97756.16
2023-01-17T04:07:10.484Z,97763.78
2023-01-17T04:09:37.079Z,97765.25
2023-01-17T04:12:05.385Z,97764.06
2023-01-17T04:14:32.008Z,97769.19
2023-01-17T04:16:58.949Z,97772.34
2023-01-17T04:19:25.567Z,97773.97
2023-01-17T04:21:52.160Z,97773.59
2023-01-17T04:24:18.729Z,97782.25
2023-01-17T04:26:45.361Z,97779.22
2023-01-17T04:29:13.575Z,97782.50
2023-01-17T04:31:40.242Z,97776.13
2023-01-17T04:34:06.943Z,97780.47
2023-01-17T04:36:33.572Z,97782.13
2023-01-17T04:39:00.168Z,97786.47
2023-01-17T04:41:26.779Z,97792.47
2023-01-17T04:43:53.470Z,97795.16
2023-01-17T04:46:21.489Z,97789.78
2023-01-17T04:48:48.146Z,97786.91
2023-01-17T04:51:14.849Z,97792.47
2023-01-17T04:53:41.400Z,97794.09
2023-01-17T04:56:08.068Z,97793.91
2023-01-17T04:58:34.713Z,97791.06
2023-01-17T05:01:02.239Z,97800.75
2023-01-17T05:03:31.032Z,97805.06
2023-01-17T05:05:57.712Z,97812.09
2023-01-17T05:08:24.415Z,97815.59
2023-01-17T05:10:51.003Z,97822.41
2023-01-17T05:13:18.024Z,97826.75
2023-01-17T05:15:44.983Z,97826.56
2023-01-17T05:18:12.606Z,97827.41
2023-01-17T05:20:40.834Z,97832.56
2023-01-17T05:23:07.433Z,97834.22
2023-01-17T05:25:34.995Z,97835.22
2023-01-17T05:28:01.891Z,97836.06
2023-01-17T05:30:29.527Z,97837.72
2023-01-17T05:32:58.016Z,97842.06
2023-01-17T05:35:26.372Z,97840.22
2023-01-17T05:37:54.480Z,97850.94
2023-01-17T05:40:23.057Z,97857.94
2023-01-17T05:42:51.440Z,97862.28
2023-01-17T05:45:20.033Z,97861.47
2023-01-17T05:47:49.373Z,97863.31
2023-01-17T05:50:18.081Z,97880.88
2023-01-17T05:52:50.085Z,97882.72
2023-01-17T05:55:18.707Z,97887.25
2023-01-17T05:57:45.444Z,97892.44
2023-01-17T06:00:13.295Z,97895.09
2023-01-17T06:02:39.963Z,97898.63
2023-01-17T06:05:07.489Z,97912.81
2023-01-17T06:07:34.184Z,97901.09
2023-01-17T06:10:00.990Z,97911.81
2023-01-17T06:12:29.169Z,97918.84
2023-01-17T06:14:55.792Z,97925.03
2023-01-17T06:17:22.475Z,97935.75
2023-01-17T06:19:49.064Z,97931.41
2023-01-17T06:22:15.892Z,97940.09
2023-01-17T06:24:42.503Z,97928.53
2023-01-17T06:27:09.193Z,97931.22
2023-01-17T06:29:37.536Z,97941.75
2023-01-17T06:32:04.746Z,97946.09
2023-01-17T06:34:31.415Z,97945.25
2023-01-17T06:36:58.006Z,97942.38
2023-01-17T06:39:24.992Z,97947.56
2023-01-17T06:41:51.577Z,97945.91
2023-01-17T06:44:18.155Z,97952.94
2023-01-17T06:46:46.348Z,97959.94
2023-01-17T06:49:13.136Z,97963.44
2023-01-17T06:51:39.858Z,97966.13
2023-01-17T06:54:06.940Z,97966.13
2023-01-17T06:56:33.857Z,97964.28
2023-01-17T06:59:00.475Z,97972.31
2023-01-17T07:01:27.250Z,97971.31
2023-01-17T07:03:55.473Z,97967.78
2023-01-17T07:06:22.442Z,97979.75
2023-01-17T07:08:49.118Z,97973.72
2023-01-17T07:11:15.979Z,97981.94
2023-01-17T07:13:42.642Z,97980.09
2023-01-17T07:16:09.528Z,97985.69
2023-01-17T07:18:36.200Z,97988.53
2023-01-17T07:21:04.378Z,97986.03
2023-01-17T07:23:31.083Z,97996.13
2023-01-17T07:25:59.613Z,97990.78
2023-01-17T07:28:28.066Z,97997.16
2023-01-17T07:30:54.743Z,98002.50
2023-01-17T07:33:21.700Z,98004.34
2023-01-17T07:35:48.591Z,97993.84
2023-01-17T07:38:18.348Z,98002.91
2023-01-17T07:40:45.496Z,97994.88
2023-01-17T07:43:12.742Z,98001.06
2023-01-17T07:45:41.613Z,98005.38
2023-01-17T07:48:08.357Z,98012.41
2023-01-17T07:50:35.155Z,98013.22
2023-01-17T07:53:01.763Z,98018.41
2023-01-17T07:55:29.768Z,98019.25
2023-01-17T07:57:56.397Z,98015.53
2023-01-17T08:00:23.269Z,98019.03
2023-01-17T08:02:49.877Z,98026.25
2023-01-17T08:05:16.785Z,98025.41
2023-01-17T08:07:43.435Z,98023.56
2023-01-17T08:10:11.571Z,98021.94
2023-01-17T08:12:39.679Z,98018.03
2023-01-17T08:15:07.663Z,98028.56
2023-01-17T08:17:34.293Z,98027.53
2023-01-17T08:20:01.030Z,98041.59
2023-01-17T08:22:30.225Z,98044.09
2023-01-17T08:24:56.831Z,98046.78
2023-01-17T08:27:23.453Z,98043.25
2023-01-17T08:29:51.405Z,98041.41
2023-01-17T08:32:17.968Z,98042.88
2023-01-17T08:34:44.626Z,98032.78
2023-01-17T08:37:11.311Z,98054.03
2023-01-17T08:39:38.137Z,98049.13
2023-01-17T08:42:05.300Z,98052.63
2023-01-17T08:44:32.023Z,98058.00
2023-01-17T08:47:02.106Z,98066.88
2023-01-17T08:49:28.727Z,98073.91
2023-01-17T08:51:55.418Z,98076.59
2023-01-17T08:54:22.442Z,98079.28
2023-01-17T08:56:49.206Z,98091.00
2023-01-17T08:59:16.106Z,98091.66
2023-01-17T09:01:42.865Z,98089.59
2023-01-17T09:04:11.595Z,98102.00
2023-01-17T09:06:39.268Z,98094.78
2023-01-17T09:09:06.777Z,98103.66
2023-01-17T09:11:34.077Z,98105.34
2023-01-17T09:14:00.838Z,98116.06
2023-01-17T09:16:27.678Z,98119.38
2023-01-17T09:18:54.489Z,98128.44
2023-01-17T09:21:23.327Z,98134.84
2023-01-17T09:23:50.315Z,98147.41
2023-01-17T09:26:20.048Z,98156.66
2023-01-17T09:28:47.175Z,98150.66
2023-01-17T09:31:15.970Z,98161.38
2023-01-17T09:33:44.333Z,98160.34
2023-01-17T09:36:11.415Z,98174.25
2023-01-17T09:38:39.570Z,98175.69
2023-01-17T09:41:20.656Z,98176.34
2023-01-17T09:43:51.967Z,98178.00
2023-01-17T09:46:24.087Z,98185.03
2023-01-17T09:48:57.367Z,98187.53
2023-01-17T09:51:24.446Z,98192.69
2023-01-17T09:53:53.387Z,98192.69
2023-01-17T09:56:25.113Z,98196.88
2023-01-17T09:59:08.767Z,98193.34
2023-01-17T10:01:38.478Z,98198.88
2023-01-17T10:04:19.694Z,98205.09
2023-01-17T10:07:04.664Z,98217.22
2023-01-17T10:10:10.051Z,98222.97
2023-01-17T10:12:46.817Z,98225.38
2023-01-17T10:15:37.269Z,98229.44
2023-01-17T10:18:29.666Z,98228.78
2023-01-17T10:21:04.350Z,98233.91
2023-01-17T10:24:08.109Z,98241.28
2023-01-17T10:26:37.733Z,98244.78
2023-01-17T10:29:13.113Z,98245.63
2023-01-17T10:31:44.003Z,98259.66
2023-01-17T10:34:17.071Z,98258.09
2023-01-17T10:36:48.480Z,98261.91
2023-01-17T10:39:20.930Z,98263.38
2023-01-17T10:41:53.691Z,98267.53
2023-01-17T10:44:27.310Z,98273.38
2023-01-17T10:46:58.467Z,98268.00
2023-01-17T10:49:27.470Z,98274.56
2023-01-17T10:52:10.027Z,98277.44
2023-01-17T10:55:11.575Z,98287.06
2023-01-17T10:57:42.265Z,98286.78
2023-01-17T11:00:38.803Z,98287.97
2023-01-17T11:03:06.089Z,98285.47
2023-01-17T11:05:33.723Z,98305.63
2023-01-17T11:08:02.076Z,98309.59
2023-01-17T11:10:37.369Z,98321.59
2023-01-17T11:13:07.901Z,98323.69
2023-01-17T11:15:38.737Z,98326.34
2023-01-17T11:18:14.623Z,98324.91
2023-01-17T11:20:42.017Z,98330.72
2023-01-17T11:23:14.679Z,98328.72
2023-01-17T11:25:49.650Z,98321.22
2023-01-17T11:28:24.484Z,98318.03
2023-01-17T11:30:53.170Z,98317.94
2023-01-17T11:33:34.045Z,98329.28
2023-01-17T11:36:00.822Z,98316.44
2023-01-17T11:38:27.669Z,98323.41
2023-01-17T11:40:54.282Z,98324.66
2023-01-17T11:43:24.451Z,98326.03
2023-01-17T11:46:02.480Z,98320.78
2023-01-17T11:48:34.558Z,98328.47
2023-01-17T11:51:02.539Z,98329.09
2023-01-17T11:53:31.858Z,98331.59
2023-01-17T11:56:04.898Z,98337.34
2023-01-17T11:58:35.543Z,98338.53
2023-01-17T12:01:18.953Z,98337.22
2023-01-17T12:04:03.685Z,98345.28
2023-01-17T12:06:56.122Z,98346.78
2023-01-17T12:09:34.165Z,98344.19
2023-01-17T12:12:09.672Z,98341.41
2023-01-17T12:14:45.603Z,98348.75
2023-01-17T12:17:26.033Z,98348.19
2023-01-17T12:19:59.195Z,98340.31
2023-01-17T12:22:36.619Z,98344.22
2023-01-17T12:25:22.522Z,98350.41
2023-01-17T12:28:04.484Z,98343.75
2023-01-17T12:30:43.661Z,98354.47
2023-01-17T12:33:20.589Z,98355.09
2023-01-17T12:35:51.301Z,98353.09
2023-01-17T12:38:32.257Z,98366.13
2023-01-17T12:41:06.963Z,98361.59
2023-01-17T12:43:36.327Z,98366.13
2023-01-17T12:46:11.660Z,98365.66
2023-01-17T12:48:38.325Z,98376.56
2023-01-17T12:51:11.310Z,98384.63
2023-01-17T12:53:43.979Z,98387.97
2023-01-17T12:56:19.165Z,98387.59
2023-01-17T12:58:51.263Z,98391.56
2023-01-17T13:01:28.273Z,98387.50
2023-01-17T13:04:02.515Z,98393.16
2023-01-17T13:06:35.877Z,98387.44
2023-01-17T13:09:03.212Z,98395.78
2023-01-17T13:11:34.253Z,98396.25
2023-01-17T13:14:01.815Z,98399.13
2023-01-17T13:16:34.689Z,98400.13
2023-01-17T13:19:09.310Z,98408.72
2023-01-17T13:21:36.091Z,98410.94
2023-01-17T13:24:20.865Z,98418.13
2023-01-17T13:27:14.489Z,98429.25
2023-01-17T13:29:55.432Z,98430.63
2023-01-17T13:32:47.156Z,98438.84
2023-01-17T13:35:22.190Z,98434.47
2023-01-17T13:38:06.392Z,98432.81
2023-01-17T13:40:35.676Z,98438.38
2023-01-17T13:43:03.603Z,98441.22
2023-01-17T13:45:32.671Z,98449.28
2023-01-17T13:48:29.242Z,98452.97
2023-01-17T13:50:57.491Z,98451.97
2023-01-17T13:53:54.625Z,98455.31
2023-01-17T13:56:32.608Z,98466.03
2023-01-17T13:59:26.908Z,98463.69
2023-01-17T14:01:54.804Z,98468.22
2023-01-17T14:04:24.749Z,98469.06
2023-01-17T14:06:54.957Z,98475.94
2023-01-17T14:09:40.711Z,98478.25
2023-01-17T14:12:30.941Z,98481.75
2023-01-17T14:15:00.764Z,98480.09
2023-01-17T14:17:51.846Z,98482.31
2023-01-17T14:20:49.623Z,98488.50
2023-01-17T14:23:25.463Z,98500.59
2023-01-17T14:25:53.213Z,98513.72
2023-01-17T14:28:24.331Z,98514.09
2023-01-17T14:30:53.192Z,98518.13
2023-01-17T14:33:27.064Z,98518.84
2023-01-17T14:35:57.437Z,98518.38
2023-01-17T14:38:26.645Z,98523.25
2023-01-17T14:40:55.498Z,98528.31
2023-01-17T14:43:24.923Z,98530.31
2023-01-17T14:45:57.756Z,98536.03
2023-01-17T14:48:24.949Z,98534.38
2023-01-17T14:50:53.120Z,98532.53
2023-01-17T14:53:22.922Z,98544.09
2023-01-17T14:55:54.271Z,98549.44
2023-01-17T14:58:23.076Z,98547.75
2023-01-17T15:00:51.769Z,98546.94
2023-01-17T15:03:18.699Z,98549.13
2023-01-17T15:05:47.910Z,98549.66
2023-01-17T15:08:17.385Z,98556.22
2023-01-17T15:10:51.178Z,98562.94
2023-01-17T15:13:29.781Z,98564.31
2023-01-17T15:16:04.224Z,98560.47
2023-01-17T15:18:34.377Z,98569.03
2023-01-17T15:21:03.651Z,98566.38
2023-01-17T15:23:36.112Z,98578.63
2023-01-17T15:26:06.142Z,98574.78
2023-01-17T15:28:34.231Z,98587.84
2023-01-17T15:31:06.787Z,98587.72
2023-01-17T15:33:35.330Z,98586.53
2023-01-17T15:36:05.129Z,98586.22
2023-01-17T15:38:38.741Z,98590.59
2023-01-17T15:41:15.335Z,98592.28
2023-01-17T15:43:44.328Z,98590.28
2023-01-17T15:46:22.614Z,98594.66
2023-01-17T15:48:50.033Z,98592.63
2023-01-17T15:51:31.323Z,98598.66
2023-01-17T15:53:58.112Z,98598.34
2023-01-17T15:56:32.118Z,98600.81
2023-01-17T15:59:22.465Z,98601.66
2023-01-17T16:01:55.968Z,98600.69
2023-01-17T16:04:27.587Z,98604.00
2023-01-17T16:06:54.310Z,98609.16
2023-01-17T16:09:22.261Z,98610.69
2023-01-17T16:11:50.439Z,98614.00
2023-01-17T16:14:17.109Z,98612.16
2023-01-17T16:16:51.007Z,98618.97
2023-01-17T16:19:17.706Z,98625.00
2023-01-17T16:21:44.327Z,98626.63
2023-01-17T16:24:11.703Z,98630.97
2023-01-17T16:26:38.517Z,98628.94
2023-01-17T16:29:06.423Z,98629.59
2023-01-17T16:31:33.449Z,98621.38
2023-01-17T16:34:00.055Z,98620.16
2023-01-17T16:36:26.791Z,98619.81
2023-01-17T16:38:53.488Z,98624.81
2023-01-17T16:41:21.168Z,98633.31
2023-01-17T16:43:57.224Z,98624.94
2023-01-17T16:46:25.532Z,98632.56
2023-01-17T16:48:52.398Z,98627.06
2023-01-17T16:51:19.014Z,98633.00
2023-01-17T16:53:45.759Z,98636.16
2023-01-17T16:56:14.950Z,98640.97
2023-01-17T16:58:42.216Z,98639.63
2023-01-17T17:01:10.688Z,98642.75
2023-01-17T17:03:38.743Z,98635.22
2023-01-17T17:06:05.744Z,98635.84
2023-01-17T17:08:33.975Z,98650.63
2023-01-17T17:11:11.668Z,98647.75
2023-01-17T17:13:38.742Z,98650.22
2023-01-17T17:16:09.816Z,98665.66
2023-01-17T17:18:37.872Z,98654.63
2023-01-17T17:21:04.542Z,98661.13
2023-01-17T17:23:31.123Z,98654.41
2023-01-17T17:25:57.914Z,98661.88
2023-01-17T17:28:24.594Z,98663.34
2023-01-17T17:30:51.326Z,98676.00
2023-01-17T17:33:17.969Z,98673.78
2023-01-17T17:35:45.997Z,98675.59
2023-01-17T17:38:12.678Z,98678.56
2023-01-17T17:40:39.295Z,98682.69
2023-01-17T17:43:06.818Z,98680.47
2023-01-17T17:45:33.419Z,98702.91
2023-01-17T17:48:00.046Z,98693.41
2023-01-17T17:50:26.835Z,98695.38
2023-01-17T17:52:54.792Z,98694.00
2023-01-17T17:55:21.477Z,98700.47
2023-01-17T17:57:48.175Z,98698.25
2023-01-17T18:00:15.424Z,98704.72
2023-01-17T18:02:41.976Z,98714.00
2023-01-17T18:05:09.453Z,98713.31
2023-01-17T18:07:36.364Z,98710.97
2023-01-17T18:10:05.590Z,98717.41
2023-01-17T18:12:32.270Z,98711.53
2023-01-17T18:14:58.878Z,98711.84
2023-01-17T18:17:25.504Z,98707.81
2023-01-17T18:19:52.100Z,98706.25
2023-01-17T18:22:18.745Z,98711.06
2023-01-17T18:24:45.511Z,98706.03
2023-01-17T18:27:13.587Z,98708.97
2023-01-17T18:29:40.185Z,98713.63
2023-01-17T18:32:06.965Z,98703.94
2023-01-17T18:34:33.551Z,98712.22
2023-01-17T18:37:00.367Z,98717.03
2023-01-17T18:39:29.300Z,98711.00
2023-01-17T18:41:56.365Z,98713.09
2023-01-17T18:44:24.591Z,98712.25
2023-01-17T18:46:53.285Z,98710.75
2023-01-17T18:49:20.230Z,98721.66
2023-01-17T18:51:48.198Z,98719.31
2023-01-17T18:54:14.855Z,98718.91
2023-01-17T18:56:41.506Z,98727.31
2023-01-17T18:59:13.613Z,98727.75
2023-01-17T19:01:41.831Z,98736.03
2023-01-17T19:04:08.583Z,98742.63
2023-01-17T19:06:36.845Z,98740.25
2023-01-17T19:09:04.452Z,98732.53
2023-01-17T19:11:31.043Z,98745.16
2023-01-17T19:13:57.697Z,98734.78
2023-01-17T19:16:26.056Z,98738.59
2023-01-17T19:18:55.245Z,98744.03
2023-01-17T19:21:24.024Z,98747.84
2023-01-17T19:23:51.999Z,98741.00
2023-01-17T19:26:18.953Z,98753.56
2023-01-17T19:28:47.498Z,98748.56
2023-01-17T19:31:16.921Z,98754.84
2023-01-17T19:33:45.502Z,98750.63
2023-01-17T19:36:16.125Z,98750.91
2023-01-17T19:38:52.278Z,98749.41
2023-01-17T19:41:27.240Z,98749.66
2023-01-17T19:43:54.747Z,98753.31
2023-01-17T19:46:21.520Z,98756.09
2023-01-17T19:48:48.269Z,98751.94
2023-01-17T19:51:16.396Z,98762.81
2023-01-17T19:53:43.693Z,98755.00
2023-01-17T19:56:11.881Z,98768.56
2023-01-17T19:58:38.776Z,98770.66
2023-01-17T20:01:07.527Z,98771.78
2023-01-17T20:03:34.371Z,98774.03
2023-01-17T20:06:00.928Z,98777.09
2023-01-17T20:08:29.031Z,98777.38
2023-01-17T20:11:00.639Z,98780.28
2023-01-17T20:13:27.304Z,98771.63
2023-01-17T20:15:53.890Z,98779.88
2023-01-17T20:18:20.530Z,98776.53
2023-01-17T20:20:56.995Z,98775.69
2023-01-17T20:23:24.358Z,98773.31
2023-01-17T20:25:55.802Z,98775.41
2023-01-17T20:28:22.433Z,98780.97
2023-01-17T20:30:49.170Z,98779.31
2023-01-17T20:33:15.784Z,98775.09
2023-01-17T20:35:42.476Z,98768.25
2023-01-17T20:38:09.160Z,98771.16
2023-01-17T20:40:35.762Z,98772.00
2023-01-17T20:43:03.948Z,98783.75
2023-01-17T20:45:30.560Z,98785.69
2023-01-17T20:47:57.523Z,98788.63
2023-01-17T20:50:24.378Z,98792.41
2023-01-17T20:52:51.004Z,98793.50
2023-01-17T20:55:17.656Z,98800.78
2023-01-17T20:57:44.312Z,98810.56
2023-01-17T21:00:14.034Z,98814.31
2023-01-17T21:02:41.099Z,98811.81
2023-01-17T21:05:09.523Z,98805.78
2023-01-17T21:07:36.151Z,98813.91
2023-01-17T21:10:03.009Z,98826.47
2023-01-17T21:12:29.663Z,98841.53
2023-01-17T21:14:56.238Z,98840.84
2023-01-17T21:17:24.221Z,98858.59
2023-01-17T21:19:50.790Z,98868.50
2023-01-17T21:22:17.415Z,98873.13
2023-01-17T21:24:44.053Z,98878.56
2023-01-17T21:27:10.710Z,98886.78
2023-01-17T21:29:37.326Z,98881.59
2023-01-17T21:32:04.527Z,98889.84
2023-01-17T21:34:32.511Z,98890.91
2023-01-17T21:36:59.113Z,98888.53
2023-01-17T21:39:25.792Z,98890.34
2023-01-17T21:41:52.432Z,98896.63
2023-01-17T21:44:21.005Z,98899.28
2023-01-17T21:46:49.089Z,98894.13
2023-01-17T21:49:15.881Z,98895.94
2023-01-17T21:51:44.050Z,98900.50
2023-01-17T21:54:10.756Z,98898.97
2023-01-17T21:56:37.365Z,98905.38
2023-01-17T21:59:03.950Z,98903.72
2023-01-17T22:01:32.946Z,98901.06
2023-01-17T22:04:01.214Z,98902.00
2023-01-17T22:06:31.212Z,98909.97
2023-01-17T22:08:59.184Z,98910.94
2023-01-17T22:11:27.420Z,98918.22
2023-01-17T22:13:54.226Z,98921.81
2023-01-17T22:16:22.370Z,98920.41
2023-01-17T22:18:49.725Z,98915.31
2023-01-17T22:21:18.317Z,98927.91
2023-01-17T22:23:46.478Z,98934.16
2023-01-17T22:26:15.084Z,98933.47
2023-01-17T22:28:42.395Z,98934.44
2023-01-17T22:31:10.994Z,98935.41
2023-01-17T22:33:39.095Z,98929.25
2023-01-17T22:36:06.913Z,98933.72
2023-01-17T22:38:33.550Z,98931.22
2023-01-17T22:41:04.826Z,98939.28
2023-01-17T22:43:32.843Z,98934.09
2023-01-17T22:45:59.789Z,98935.09
2023-01-17T22:48:26.439Z,98924.72
2023-01-17T22:50:56.834Z,98916.91
2023-01-17T22:53:23.608Z,98917.84
2023-01-17T22:55:58.635Z,98916.28
2023-01-17T22:58:25.268Z,98909.31
2023-01-17T23:00:53.273Z,98908.59
2023-01-17T23:03:20.032Z,98910.53
2023-01-17T23:05:47.807Z,98906.19
2023-01-17T23:08:14.485Z,98912.59
2023-01-17T23:10:41.710Z,98912.84
2023-01-17T23:13:08.726Z,98912.00
2023-01-17T23:15:37.736Z,98910.47
2023-01-17T23:18:05.921Z,98907.22
2023-01-17T23:20:32.736Z,98907.22
2023-01-17T23:22:59.798Z,98911.69
2023-01-17T23:25:26.590Z,98903.00
2023-01-17T23:27:53.180Z,98900.59
2023-01-17T23:30:21.728Z,98907.84
2023-01-17T23:32:50.275Z,98898.22
2023-01-17T23:35:20.687Z,98899.19
2023-01-17T23:37:47.445Z,98898.44
2023-01-17T23:40:14.311Z,98883.53
2023-01-17T23:42:41.534Z,98889.06
2023-01-17T23:45:08.999Z,98884.72
2023-01-17T23:47:35.557Z,98876.06
2023-01-17T23:50:02.147Z,98878.00
2023-01-17T23:52:30.123Z,98880.63
2023-01-17T23:54:56.731Z,98864.03
2023-01-17T23:57:23.291Z,98860.66
2023-01-17T23:59:49.858Z,98860.91
